sensor_id;sensor_type;location;lat;lon;timestamp;pressure;altitude;pressure_sealevel;temperature;humidity
62374;BME280;48409;49.030;1.820;2022-09-21T00:01:16;101773.91;;;13.88;52.36
62374;BME280;48409;49.030;1.820;2022-09-21T00:03:42;101776.59;;;13.86;52.25
62374;BME280;48409;49.030;1.820;2022-09-21T00:06:10;101774.84;;;13.87;52.45
62374;BME280;48409;49.030;1.820;2022-09-21T00:08:36;101772.25;;;13.85;52.49
62374;BME280;48409;49.030;1.820;2022-09-21T00:11:01;101774.03;;;13.84;52.35
62374;BME280;48409;49.030;1.820;2022-09-21T00:13:27;101774.06;;;13.83;52.34
62374;BME280;48409;49.030;1.820;2022-09-21T00:15:56;101776.78;;;13.81;52.34
62374;BME280;48409;49.030;1.820;2022-09-21T00:18:22;101785.66;;;13.80;52.42
62374;BME280;48409;49.030;1.820;2022-09-21T00:20:47;101775.06;;;13.80;52.38
62374;BME280;48409;49.030;1.820;2022-09-21T00:23:13;101783.06;;;13.79;52.39
62374;BME280;48409;49.030;1.820;2022-09-21T00:25:38;101777.84;;;13.77;52.45
62374;BME280;48409;49.030;1.820;2022-09-21T00:28:03;101781.44;;;13.76;52.41
62374;BME280;48409;49.030;1.820;2022-09-21T00:30:29;101778.00;;;13.74;52.49
62374;BME280;48409;49.030;1.820;2022-09-21T00:32:54;101787.72;;;13.74;52.60
62374;BME280;48409;49.030;1.820;2022-09-21T00:35:19;101776.25;;;13.73;52.45
62374;BME280;48409;49.030;1.820;2022-09-21T00:37:45;101779.81;;;13.72;52.49
62374;BME280;48409;49.030;1.820;2022-09-21T00:40:10;101786.06;;;13.71;52.47
62374;BME280;48409;49.030;1.820;2022-09-21T00:42:35;101780.81;;;13.69;52.73
62374;BME280;48409;49.030;1.820;2022-09-21T00:45:01;101783.53;;;13.68;52.46
62374;BME280;48409;49.030;1.820;2022-09-21T00:49:55;101783.69;;;13.65;52.57
62374;BME280;48409;49.030;1.820;2022-09-21T00:52:22;101788.97;;;13.65;52.46
62374;BME280;48409;49.030;1.820;2022-09-21T00:57:13;101780.22;;;13.63;52.60
62374;BME280;48409;49.030;1.820;2022-09-21T00:59:39;101775.84;;;13.62;52.58
62374;BME280;48409;49.030;1.820;2022-09-21T01:02:06;101774.19;;;13.59;52.72
62374;BME280;48409;49.030;1.820;2022-09-21T01:04:31;101780.47;;;13.56;52.65
62374;BME280;48409;49.030;1.820;2022-09-21T01:06:57;101769.91;;;13.56;52.56
62374;BME280;48409;49.030;1.820;2022-09-21T01:09:23;101768.19;;;13.55;52.53
62374;BME280;48409;49.030;1.820;2022-09-21T01:12:02;101775.31;;;13.53;52.78
62374;BME280;48409;49.030;1.820;2022-09-21T01:17:05;101771.88;;;13.51;52.77
62374;BME280;48409;49.030;1.820;2022-09-21T01:19:51;101768.41;;;13.49;52.61
62374;BME280;48409;49.030;1.820;2022-09-21T01:22:30;101766.72;;;13.48;52.71
62374;BME280;48409;49.030;1.820;2022-09-21T01:25:10;101768.50;;;13.46;52.66
62374;BME280;48409;49.030;1.820;2022-09-21T01:27:41;101773.88;;;13.44;52.88
62374;BME280;48409;49.030;1.820;2022-09-21T01:30:14;101769.50;;;13.43;52.83
62374;BME280;48409;49.030;1.820;2022-09-21T01:32:54;101768.66;;;13.43;52.87
62374;BME280;48409;49.030;1.820;2022-09-21T01:38:23;101768.78;;;13.40;52.73
62374;BME280;48409;49.030;1.820;2022-09-21T01:40:51;101764.41;;;13.39;52.98
62374;BME280;48409;49.030;1.820;2022-09-21T01:43:20;101767.06;;;13.39;52.82
62374;BME280;48409;49.030;1.820;2022-09-21T01:45:49;101765.34;;;13.38;53.00
62374;BME280;48409;49.030;1.820;2022-09-21T01:48:16;101770.63;;;13.38;53.07
62374;BME280;48409;49.030;1.820;2022-09-21T01:50:43;101767.16;;;13.36;53.06
62374;BME280;48409;49.030;1.820;2022-09-21T01:53:12;101769.81;;;13.36;53.13
62374;BME280;48409;49.030;1.820;2022-09-21T01:55:40;101768.03;;;13.36;53.01
62374;BME280;48409;49.030;1.820;2022-09-21T01:58:09;101761.88;;;13.36;53.04
62374;BME280;48409;49.030;1.820;2022-09-21T02:00:36;101764.53;;;13.36;52.95
62374;BME280;48409;49.030;1.820;2022-09-21T02:03:04;101766.25;;;13.37;52.93
62374;BME280;48409;49.030;1.820;2022-09-21T02:05:31;101769.03;;;13.34;53.03
62374;BME280;48409;49.030;1.820;2022-09-21T02:07:57;101762.88;;;13.33;52.98
62374;BME280;48409;49.030;1.820;2022-09-21T02:10:25;101759.34;;;13.32;52.97
62374;BME280;48409;49.030;1.820;2022-09-21T02:12:53;101768.09;;;13.35;53.07
62374;BME280;48409;49.030;1.820;2022-09-21T02:15:25;101767.28;;;13.32;53.06
62374;BME280;48409;49.030;1.820;2022-09-21T02:18:03;101761.16;;;13.32;53.20
62374;BME280;48409;49.030;1.820;2022-09-21T02:20:35;101772.56;;;13.32;53.24
62374;BME280;48409;49.030;1.820;2022-09-21T02:23:04;101762.13;;;13.29;53.21
62374;BME280;48409;49.030;1.820;2022-09-21T02:25:35;101763.91;;;13.29;53.08
62374;BME280;48409;49.030;1.820;2022-09-21T02:28:09;101760.41;;;13.28;53.17
62374;BME280;48409;49.030;1.820;2022-09-21T02:30:37;101760.47;;;13.27;53.29
62374;BME280;48409;49.030;1.820;2022-09-21T02:33:08;101760.53;;;13.25;53.10
62374;BME280;48409;49.030;1.820;2022-09-21T02:41:05;101765.94;;;13.22;53.11
62374;BME280;48409;49.030;1.820;2022-09-21T02:46:02;101759.06;;;13.18;53.10
62374;BME280;48409;49.030;1.820;2022-09-21T02:48:46;101766.06;;;13.19;53.05
62374;BME280;48409;49.030;1.820;2022-09-21T02:51:15;101767.91;;;13.17;53.10
62374;BME280;48409;49.030;1.820;2022-09-21T02:53:41;101764.47;;;13.15;53.11
62374;BME280;48409;49.030;1.820;2022-09-21T02:56:07;101772.38;;;13.15;53.26
62374;BME280;48409;49.030;1.820;2022-09-21T02:58:33;101762.78;;;13.12;53.11
62374;BME280;48409;49.030;1.820;2022-09-21T03:00:59;101764.59;;;13.12;53.23
62374;BME280;48409;49.030;1.820;2022-09-21T03:03:25;101767.31;;;13.10;53.12
62374;BME280;48409;49.030;1.820;2022-09-21T03:05:53;101766.44;;;13.10;53.18
62374;BME280;48409;49.030;1.820;2022-09-21T03:08:19;101765.69;;;13.06;53.14
62374;BME280;48409;49.030;1.820;2022-09-21T03:10:44;101764.81;;;13.05;53.14
62374;BME280;48409;49.030;1.820;2022-09-21T03:13:10;101775.41;;;13.05;53.12
62374;BME280;48409;49.030;1.820;2022-09-21T03:15:36;101764.03;;;13.03;53.33
62374;BME280;48409;49.030;1.820;2022-09-21T03:18:02;101764.97;;;13.02;53.15
62374;BME280;48409;49.030;1.820;2022-09-21T03:20:29;101761.50;;;13.00;53.41
62374;BME280;48409;49.030;1.820;2022-09-21T03:22:56;101770.38;;;12.99;53.27
62374;BME280;48409;49.030;1.820;2022-09-21T03:25:21;101758.91;;;12.99;53.11
62374;BME280;48409;49.030;1.820;2022-09-21T03:27:47;101766.06;;;12.97;53.19
62374;BME280;48409;49.030;1.820;2022-09-21T03:30:12;101762.59;;;12.95;53.12
62374;BME280;48409;49.030;1.820;2022-09-21T03:32:38;101767.88;;;12.95;53.31
62374;BME280;48409;49.030;1.820;2022-09-21T03:35:03;101770.59;;;12.93;53.21
62374;BME280;48409;49.030;1.820;2022-09-21T03:37:29;101756.56;;;12.91;53.30
62374;BME280;48409;49.030;1.820;2022-09-21T03:39:54;101764.56;;;12.89;53.17
62374;BME280;48409;49.030;1.820;2022-09-21T03:42:20;101764.56;;;12.89;53.17
62374;BME280;48409;49.030;1.820;2022-09-21T03:44:45;101762.84;;;12.88;53.15
62374;BME280;48409;49.030;1.820;2022-09-21T03:47:10;101760.25;;;12.87;53.40
62374;BME280;48409;49.030;1.820;2022-09-21T03:49:35;101763.84;;;12.86;53.19
62374;BME280;48409;49.030;1.820;2022-09-21T03:52:02;101768.25;;;12.85;53.33
62374;BME280;48409;49.030;1.820;2022-09-21T03:54:28;101763.94;;;12.83;53.14
62374;BME280;48409;49.030;1.820;2022-09-21T03:56:53;101767.50;;;12.82;53.33
62374;BME280;48409;49.030;1.820;2022-09-21T03:59:18;101760.50;;;12.81;53.41
62374;BME280;48409;49.030;1.820;2022-09-21T04:01:45;101763.25;;;12.77;53.34
62374;BME280;48409;49.030;1.820;2022-09-21T04:04:11;101764.19;;;12.76;53.19
62374;BME280;48409;49.030;1.820;2022-09-21T04:06:36;101771.19;;;12.77;53.52
62374;BME280;48409;49.030;1.820;2022-09-21T04:09:01;101771.31;;;12.74;53.31
62374;BME280;48409;49.030;1.820;2022-09-21T04:11:27;101771.31;;;12.74;53.24
62374;BME280;48409;49.030;1.820;2022-09-21T04:13:53;101772.28;;;12.72;53.46
62374;BME280;48409;49.030;1.820;2022-09-21T04:16:24;101771.44;;;12.71;53.34
62374;BME280;48409;49.030;1.820;2022-09-21T04:18:50;101769.69;;;12.70;53.36
62374;BME280;48409;49.030;1.820;2022-09-21T04:21:18;101760.09;;;12.68;53.29
62374;BME280;48409;49.030;1.820;2022-09-21T04:23:43;101761.09;;;12.65;53.13
62374;BME280;48409;49.030;1.820;2022-09-21T04:28:47;101758.50;;;12.63;53.39
62374;BME280;48409;49.030;1.820;2022-09-21T04:31:12;101758.53;;;12.62;53.42
62374;BME280;48409;49.030;1.820;2022-09-21T04:33:37;101761.28;;;12.60;53.24
62374;BME280;48409;49.030;1.820;2022-09-21T04:36:02;101765.69;;;12.60;53.35
62374;BME280;48409;49.030;1.820;2022-09-21T04:38:29;101763.97;;;12.59;53.46
62374;BME280;48409;49.030;1.820;2022-09-21T04:40:55;101759.56;;;12.58;53.19
62374;BME280;48409;49.030;1.820;2022-09-21T04:43:20;101768.44;;;12.57;53.30
62374;BME280;48409;49.030;1.820;2022-09-21T04:45:46;101762.41;;;12.53;53.44
62374;BME280;48409;49.030;1.820;2022-09-21T04:48:12;101759.81;;;12.51;53.30
62374;BME280;48409;49.030;1.820;2022-09-21T04:50:37;101765.97;;;12.52;53.36
62374;BME280;48409;49.030;1.820;2022-09-21T04:53:02;101769.50;;;12.51;53.42
62374;BME280;48409;49.030;1.820;2022-09-21T04:55:28;101760.84;;;12.47;53.25
62374;BME280;48409;49.030;1.820;2022-09-21T04:57:53;101764.38;;;12.48;53.49
62374;BME280;48409;49.030;1.820;2022-09-21T05:00:18;101762.69;;;12.45;53.31
62374;BME280;48409;49.030;1.820;2022-09-21T05:02:44;101768.03;;;12.44;53.41
62374;BME280;48409;49.030;1.820;2022-09-21T05:05:09;101761.88;;;12.43;53.20
62374;BME280;48409;49.030;1.820;2022-09-21T05:07:34;101754.88;;;12.42;53.28
62374;BME280;48409;49.030;1.820;2022-09-21T05:09:59;101755.00;;;12.39;53.19
62374;BME280;48409;49.030;1.820;2022-09-21T05:12:28;101755.91;;;12.38;53.33
62374;BME280;48409;49.030;1.820;2022-09-21T05:14:53;101761.25;;;12.36;53.39
62374;BME280;48409;49.030;1.820;2022-09-21T05:17:20;101760.41;;;12.36;53.26
62374;BME280;48409;49.030;1.820;2022-09-21T05:19:47;101754.28;;;12.34;53.36
62374;BME280;48409;49.030;1.820;2022-09-21T05:22:12;101756.16;;;12.32;53.20
62374;BME280;48409;49.030;1.820;2022-09-21T05:24:37;101758.78;;;12.32;53.46
62374;BME280;48409;49.030;1.820;2022-09-21T05:27:03;101760.59;;;12.30;53.29
62374;BME280;48409;49.030;1.820;2022-09-21T05:29:28;101760.59;;;12.30;53.49
62374;BME280;48409;49.030;1.820;2022-09-21T05:32:13;101758.91;;;12.29;53.42
62374;BME280;48409;49.030;1.820;2022-09-21T05:40:07;101753.84;;;12.22;53.34
62374;BME280;48409;49.030;1.820;2022-09-21T05:42:34;101760.94;;;12.20;53.22
62374;BME280;48409;49.030;1.820;2022-09-21T05:44:59;101758.34;;;12.19;53.25
62374;BME280;48409;49.030;1.820;2022-09-21T05:52:18;101768.97;;;12.17;53.34
62374;BME280;48409;49.030;1.820;2022-09-21T05:57:15;101767.31;;;12.14;53.32
62374;BME280;48409;49.030;1.820;2022-09-21T06:04:49;101766.56;;;12.11;53.47
62374;BME280;48409;49.030;1.820;2022-09-21T06:07:16;101768.38;;;12.09;53.31
62374;BME280;48409;49.030;1.820;2022-09-21T06:09:41;101765.69;;;12.10;53.44
62374;BME280;48409;49.030;1.820;2022-09-21T06:12:07;101769.28;;;12.08;53.40
62374;BME280;48409;49.030;1.820;2022-09-21T06:14:35;101759.66;;;12.07;53.43
62374;BME280;48409;49.030;1.820;2022-09-21T06:17:01;101757.94;;;12.06;53.44
62374;BME280;48409;49.030;1.820;2022-09-21T06:19:26;101765.88;;;12.06;53.49
62374;BME280;48409;49.030;1.820;2022-09-21T06:21:51;101759.72;;;12.05;53.32
62374;BME280;48409;49.030;1.820;2022-09-21T06:24:16;101759.72;;;12.04;53.42
62374;BME280;48409;49.030;1.820;2022-09-21T06:26:42;101759.72;;;12.04;53.54
62374;BME280;48409;49.030;1.820;2022-09-21T06:29:07;101768.56;;;12.02;53.55
62374;BME280;48409;49.030;1.820;2022-09-21T06:31:32;101770.28;;;12.04;53.59
62374;BME280;48409;49.030;1.820;2022-09-21T06:33:58;101776.50;;;12.02;53.54
62374;BME280;48409;49.030;1.820;2022-09-21T06:36:24;101770.28;;;12.04;53.61
62374;BME280;48409;49.030;1.820;2022-09-21T06:38:49;101776.50;;;12.02;53.62
62374;BME280;48409;49.030;1.820;2022-09-21T06:41:14;101772.09;;;12.03;53.63
62374;BME280;48409;49.030;1.820;2022-09-21T06:43:39;101775.56;;;12.04;53.50
62374;BME280;48409;49.030;1.820;2022-09-21T06:46:05;101772.13;;;12.01;53.62
62374;BME280;48409;49.030;1.820;2022-09-21T06:48:31;101773.84;;;12.02;53.72
62374;BME280;48409;49.030;1.820;2022-09-21T06:50:57;101778.25;;;12.02;53.58
62374;BME280;48409;49.030;1.820;2022-09-21T06:53:23;101773.84;;;12.02;53.81
62374;BME280;48409;49.030;1.820;2022-09-21T06:55:48;101772.94;;;12.04;53.64
62374;BME280;48409;49.030;1.820;2022-09-21T06:58:14;101770.28;;;12.04;53.77
62374;BME280;48409;49.030;1.820;2022-09-21T07:00:39;101777.31;;;12.05;53.59
62374;BME280;48409;49.030;1.820;2022-09-21T07:03:04;101763.22;;;12.06;53.71
62374;BME280;48409;49.030;1.820;2022-09-21T07:05:30;101769.34;;;12.06;53.88
62374;BME280;48409;49.030;1.820;2022-09-21T07:07:56;101759.66;;;12.07;53.89
62374;BME280;48409;49.030;1.820;2022-09-21T07:10:22;101757.81;;;12.09;54.00
62374;BME280;48409;49.030;1.820;2022-09-21T07:12:48;101759.59;;;12.08;53.76
62374;BME280;48409;49.030;1.820;2022-09-21T07:15:15;101750.72;;;12.11;53.87
62374;BME280;48409;49.030;1.820;2022-09-21T07:17:40;101752.38;;;12.13;53.93
62374;BME280;48409;49.030;1.820;2022-09-21T07:20:07;101745.34;;;12.14;53.86
62374;BME280;48409;49.030;1.820;2022-09-21T07:22:33;101752.31;;;12.15;54.06
62374;BME280;48409;49.030;1.820;2022-09-21T07:24:58;101749.63;;;12.17;53.99
62374;BME280;48409;49.030;1.820;2022-09-21T07:27:24;101748.72;;;12.18;54.13
62374;BME280;48409;49.030;1.820;2022-09-21T07:29:50;101755.66;;;12.20;54.13
62374;BME280;48409;49.030;1.820;2022-09-21T07:32:15;101751.25;;;12.21;54.15
62374;BME280;48409;49.030;1.820;2022-09-21T07:34:41;101763.47;;;12.23;54.19
62374;BME280;48409;49.030;1.820;2022-09-21T07:37:06;101757.28;;;12.24;54.06
62374;BME280;48409;49.030;1.820;2022-09-21T07:39:31;101766.00;;;12.26;54.34
62374;BME280;48409;49.030;1.820;2022-09-21T07:41:56;101763.25;;;12.30;54.07
62374;BME280;48409;49.030;1.820;2022-09-21T07:44:22;101762.31;;;12.31;54.23
62374;BME280;48409;49.030;1.820;2022-09-21T07:46:48;101764.88;;;12.34;54.28
62374;BME280;48409;49.030;1.820;2022-09-21T07:49:13;101758.66;;;12.35;54.38
62374;BME280;48409;49.030;1.820;2022-09-21T07:51:38;101765.59;;;12.37;54.38
62374;BME280;48409;49.030;1.820;2022-09-21T07:54:04;101767.28;;;12.40;54.25
62374;BME280;48409;49.030;1.820;2022-09-21T07:56:29;101765.34;;;12.45;54.58
62374;BME280;48409;49.030;1.820;2022-09-21T07:58:54;101764.41;;;12.46;54.43
62374;BME280;48409;49.030;1.820;2022-09-21T08:01:39;101771.25;;;12.52;54.52
62374;BME280;48409;49.030;1.820;2022-09-21T08:04:05;101763.16;;;12.57;54.94
62374;BME280;48409;49.030;1.820;2022-09-21T08:06:31;101763.78;;;12.63;55.09
62374;BME280;48409;49.030;1.820;2022-09-21T08:08:58;101759.13;;;12.70;55.04
62374;BME280;48409;49.030;1.820;2022-09-21T08:11:23;101762.34;;;12.78;55.38
62374;BME280;48409;49.030;1.820;2022-09-21T08:13:56;101769.00;;;12.89;55.67
62374;BME280;48409;49.030;1.820;2022-09-21T08:16:22;101765.09;;;12.99;55.79
62374;BME280;48409;49.030;1.820;2022-09-21T08:34:46;101760.47;;;14.92;58.90
62374;BME280;48409;49.030;1.820;2022-09-21T08:37:13;101757.72;;;15.12;58.30
62374;BME280;48409;49.030;1.820;2022-09-21T08:39:41;101758.69;;;15.29;58.14
62374;BME280;48409;49.030;1.820;2022-09-21T08:42:35;101768.69;;;15.42;57.61
62374;BME280;48409;49.030;1.820;2022-09-21T08:45:24;101753.03;;;15.55;57.42
62374;BME280;48409;49.030;1.820;2022-09-21T08:47:56;101752.63;;;15.62;57.41
62374;BME280;48409;49.030;1.820;2022-09-21T08:50:45;101753.88;;;15.73;57.58
62374;BME280;48409;49.030;1.820;2022-09-21T08:53:23;101750.75;;;15.82;57.63
62374;BME280;48409;49.030;1.820;2022-09-21T08:55:51;101757.31;;;15.92;57.55
62374;BME280;48409;49.030;1.820;2022-09-21T08:58:27;101754.03;;;16.05;57.86
62374;BME280;48409;49.030;1.820;2022-09-21T09:01:20;101750.75;;;16.17;57.58
62374;BME280;48409;49.030;1.820;2022-09-21T09:07:05;101750.97;;;16.47;57.90
62374;BME280;48409;49.030;1.820;2022-09-21T09:20:28;101756.50;;;17.24;57.91
62374;BME280;48409;49.030;1.820;2022-09-21T09:23:05;101752.84;;;17.41;57.97
62374;BME280;48409;49.030;1.820;2022-09-21T09:25:38;101749.19;;;17.58;57.65
62374;BME280;48409;49.030;1.820;2022-09-21T09:28:30;101752.56;;;17.77;57.75
62374;BME280;48409;49.030;1.820;2022-09-21T09:31:05;101753.34;;;17.93;57.77
62374;BME280;48409;49.030;1.820;2022-09-21T09:33:43;101751.59;;;18.08;57.57
62374;BME280;48409;49.030;1.820;2022-09-21T09:36:13;101748.09;;;18.22;57.24
62374;BME280;48409;49.030;1.820;2022-09-21T09:38:44;101754.28;;;18.37;57.29
62374;BME280;48409;49.030;1.820;2022-09-21T09:41:37;101757.47;;;18.57;57.50
62374;BME280;48409;49.030;1.820;2022-09-21T09:44:37;101755.47;;;18.75;57.29
62374;BME280;48409;49.030;1.820;2022-09-21T09:47:18;101759.81;;;18.91;56.93
62374;BME280;48409;49.030;1.820;2022-09-21T09:50:34;101757.09;;;19.05;56.93
62374;BME280;48409;49.030;1.820;2022-09-21T09:52:33;101755.38;;;19.19;56.68
62374;BME280;48409;49.030;1.820;2022-09-21T09:55:13;101744.63;;;19.34;56.87
62374;BME280;48409;49.030;1.820;2022-09-21T09:57:39;101749.16;;;19.46;56.48
62374;BME280;48409;49.030;1.820;2022-09-21T10:00:06;101752.59;;;19.61;56.32
62374;BME280;48409;49.030;1.820;2022-09-21T10:02:55;101752.41;;;19.77;56.72
62374;BME280;48409;49.030;1.820;2022-09-21T10:05:31;101746.94;;;19.92;56.28
62374;BME280;48409;49.030;1.820;2022-09-21T10:07:57;101748.72;;;20.06;56.05
62374;BME280;48409;49.030;1.820;2022-09-21T10:10:29;101743.22;;;20.20;55.79
62374;BME280;48409;49.030;1.820;2022-09-21T10:13:24;101737.84;;;20.33;55.95
62374;BME280;48409;49.030;1.820;2022-09-21T10:16:22;101738.69;;;20.47;55.99
62374;BME280;48409;49.030;1.820;2022-09-21T10:18:59;101734.28;;;20.59;55.41
62374;BME280;48409;49.030;1.820;2022-09-21T10:21:39;101732.63;;;20.69;55.54
62374;BME280;48409;49.030;1.820;2022-09-21T10:26:47;101733.66;;;20.93;54.88
62374;BME280;48409;49.030;1.820;2022-09-21T10:29:27;101738.09;;;21.05;54.98
62374;BME280;48409;49.030;1.820;2022-09-21T10:32:00;101727.31;;;21.18;54.47
62374;BME280;48409;49.030;1.820;2022-09-21T10:34:29;101730.91;;;21.30;54.10
62374;BME280;48409;49.030;1.820;2022-09-21T10:37:00;101731.06;;;21.40;54.03
62374;BME280;48409;49.030;1.820;2022-09-21T10:39:28;101724.13;;;21.49;53.92
62374;BME280;48409;49.030;1.820;2022-09-21T10:42:12;101720.63;;;21.60;54.17
62374;BME280;48409;49.030;1.820;2022-09-21T10:44:40;101718.22;;;21.68;53.57
62374;BME280;48409;49.030;1.820;2022-09-21T10:47:34;101722.75;;;21.79;53.94
62374;BME280;48409;49.030;1.820;2022-09-21T10:50:04;101718.66;;;21.86;53.15
62374;BME280;48409;49.030;1.820;2022-09-21T10:52:37;101713.75;;;21.91;52.76
62374;BME280;48409;49.030;1.820;2022-09-21T10:55:17;101710.75;;;21.96;52.71
62374;BME280;48409;49.030;1.820;2022-09-21T10:57:55;101707.91;;;21.98;52.22
62374;BME280;48409;49.030;1.820;2022-09-21T11:00:39;101712.16;;;22.00;51.82
62374;BME280;48409;49.030;1.820;2022-09-21T11:03:27;101723.75;;;22.01;52.23
62374;BME280;48409;49.030;1.820;2022-09-21T11:06:14;101719.28;;;22.01;51.48
62374;BME280;48409;49.030;1.820;2022-09-21T11:08:58;101717.69;;;21.99;51.52
62374;BME280;48409;49.030;1.820;2022-09-21T11:17:22;101706.22;;;21.85;51.21
62374;BME280;48409;49.030;1.820;2022-09-21T11:20:12;101710.94;;;21.82;50.90
62374;BME280;48409;49.030;1.820;2022-09-21T11:23:04;101712.28;;;21.76;50.72
62374;BME280;48409;49.030;1.820;2022-09-21T11:31:44;101700.28;;;21.57;49.85
62374;BME280;48409;49.030;1.820;2022-09-21T11:36:59;101697.59;;;21.46;49.93
62374;BME280;48409;49.030;1.820;2022-09-21T11:45:00;101690.94;;;21.27;49.31
62374;BME280;48409;49.030;1.820;2022-09-21T11:53:24;101684.28;;;21.08;49.40
62374;BME280;48409;49.030;1.820;2022-09-21T11:58:42;101683.00;;;20.90;48.78
62374;BME280;48409;49.030;1.820;2022-09-21T12:01:39;101678.09;;;20.83;49.24
62374;BME280;48409;49.030;1.820;2022-09-21T12:09:53;101661.16;;;20.58;49.21
62374;BME280;48409;49.030;1.820;2022-09-21T12:12:41;101664.31;;;20.52;49.18
62374;BME280;48409;49.030;1.820;2022-09-21T12:15:21;101661.84;;;20.49;48.81
62374;BME280;48409;49.030;1.820;2022-09-21T12:23:45;101666.13;;;20.39;49.05
62374;BME280;48409;49.030;1.820;2022-09-21T12:26:17;101667.22;;;20.36;48.61
62374;BME280;48409;49.030;1.820;2022-09-21T12:28:48;101661.13;;;20.34;48.87
62374;BME280;48409;49.030;1.820;2022-09-21T12:31:19;101656.88;;;20.31;49.38
62374;BME280;48409;49.030;1.820;2022-09-21T12:34:11;101650.75;;;20.29;49.06
62374;BME280;48409;49.030;1.820;2022-09-21T12:36:42;101647.56;;;20.24;48.72
62374;BME280;48409;49.030;1.820;2022-09-21T12:39:17;101654.88;;;20.22;48.62
62374;BME280;48409;49.030;1.820;2022-09-21T12:41:55;101653.16;;;20.21;48.95
62374;BME280;48409;49.030;1.820;2022-09-21T12:44:50;101647.81;;;20.21;49.11
62374;BME280;48409;49.030;1.820;2022-09-21T12:50:36;101652.41;;;20.19;48.94
62374;BME280;48409;49.030;1.820;2022-09-21T12:53:03;101648.03;;;20.18;48.71
62374;BME280;48409;49.030;1.820;2022-09-21T12:55:49;101649.94;;;20.16;48.82
62374;BME280;48409;49.030;1.820;2022-09-21T13:01:29;101637.03;;;20.09;48.86
62374;BME280;48409;49.030;1.820;2022-09-21T13:04:00;101635.44;;;20.07;48.42
62374;BME280;48409;49.030;1.820;2022-09-21T13:06:47;101626.63;;;20.05;48.62
62374;BME280;48409;49.030;1.820;2022-09-21T13:09:16;101629.44;;;20.03;48.40
62374;BME280;48409;49.030;1.820;2022-09-21T13:11:53;101627.72;;;20.02;48.40
62374;BME280;48409;49.030;1.820;2022-09-21T13:14:22;101629.66;;;20.00;48.25
62374;BME280;48409;49.030;1.820;2022-09-21T13:16:54;101622.63;;;19.99;48.08
62374;BME280;48409;49.030;1.820;2022-09-21T13:19:24;101630.63;;;19.99;48.20
62374;BME280;48409;49.030;1.820;2022-09-21T13:22:12;101620.00;;;19.98;48.53
62374;BME280;48409;49.030;1.820;2022-09-21T13:35:51;101614.25;;;19.91;48.07
62374;BME280;48409;49.030;1.820;2022-09-21T13:38:25;101612.53;;;19.90;48.21
62374;BME280;48409;49.030;1.820;2022-09-21T13:41:00;101603.78;;;19.88;48.13
62374;BME280;48409;49.030;1.820;2022-09-21T13:52:42;101591.59;;;19.83;48.14
62374;BME280;48409;49.030;1.820;2022-09-21T13:54:58;101590.84;;;19.81;47.81
62374;BME280;48409;49.030;1.820;2022-09-21T14:00:07;101580.47;;;19.77;48.05
62374;BME280;48409;49.030;1.820;2022-09-21T14:02:36;101583.25;;;19.75;47.70
62374;BME280;48409;49.030;1.820;2022-09-21T14:13:27;101575.78;;;19.67;47.83
62374;BME280;48409;49.030;1.820;2022-09-21T14:15:54;101579.44;;;19.66;47.48
62374;BME280;48409;49.030;1.820;2022-09-21T14:18:33;101569.81;;;19.64;47.38
62374;BME280;48409;49.030;1.820;2022-09-21T14:23:32;101567.47;;;19.59;47.46
62374;BME280;48409;49.030;1.820;2022-09-21T14:25:59;101559.44;;;19.59;47.26
62374;BME280;48409;49.030;1.820;2022-09-21T14:28:33;101556.88;;;19.57;47.50
62374;BME280;48409;49.030;1.820;2022-09-21T14:31:05;101550.81;;;19.55;47.29
62374;BME280;48409;49.030;1.820;2022-09-21T14:33:47;101563.28;;;19.55;47.59
62374;BME280;48409;49.030;1.820;2022-09-21T14:36:21;101563.41;;;19.53;47.55
62374;BME280;48409;49.030;1.820;2022-09-21T14:38:57;101558.06;;;19.53;47.27
62374;BME280;48409;49.030;1.820;2022-09-21T14:41:29;101558.28;;;19.50;47.18
62374;BME280;48409;49.030;1.820;2022-09-21T14:43:58;101545.88;;;19.49;47.01
62374;BME280;48409;49.030;1.820;2022-09-21T14:46:34;101550.47;;;19.47;47.15
62374;BME280;48409;49.030;1.820;2022-09-21T15:00:48;101553.03;;;19.36;46.82
62374;BME280;48409;49.030;1.820;2022-09-21T15:06:06;101536.50;;;19.30;47.03
62374;BME280;48409;49.030;1.820;2022-09-21T15:12:06;101538.44;;;19.28;47.05
62374;BME280;48409;49.030;1.820;2022-09-21T15:17:59;101531.59;;;19.24;46.53
62374;BME280;48409;49.030;1.820;2022-09-21T15:20:28;101533.50;;;19.22;46.61
62374;BME280;48409;49.030;1.820;2022-09-21T15:22:58;101524.75;;;19.20;46.78
62374;BME280;48409;49.030;1.820;2022-09-21T15:25:26;101527.53;;;19.18;46.67
62374;BME280;48409;49.030;1.820;2022-09-21T15:27:53;101526.66;;;19.18;46.97
62374;BME280;48409;49.030;1.820;2022-09-21T15:30:26;101528.50;;;19.17;46.88
62374;BME280;48409;49.030;1.820;2022-09-21T15:32:54;101530.31;;;19.17;46.75
62374;BME280;48409;49.030;1.820;2022-09-21T15:37:48;101521.56;;;19.15;46.78
62374;BME280;48409;49.030;1.820;2022-09-21T15:43:16;101523.47;;;19.13;46.96
62374;BME280;48409;49.030;1.820;2022-09-21T15:48:22;101521.75;;;19.12;46.49
62374;BME280;48409;49.030;1.820;2022-09-21T15:50:57;101517.59;;;19.08;46.44
62374;BME280;48409;49.030;1.820;2022-09-21T15:53:44;101511.50;;;19.05;46.82
62374;BME280;48409;49.030;1.820;2022-09-21T15:56:18;101510.66;;;19.05;46.56
62374;BME280;48409;49.030;1.820;2022-09-21T15:58:46;101508.06;;;19.03;46.54
62374;BME280;48409;49.030;1.820;2022-09-21T16:01:19;101506.34;;;19.02;46.41
62374;BME280;48409;49.030;1.820;2022-09-21T16:03:46;101506.56;;;18.99;46.25
62374;BME280;48409;49.030;1.820;2022-09-21T16:06:22;101508.25;;;19.00;46.41
62374;BME280;48409;49.030;1.820;2022-09-21T16:08:48;101500.34;;;18.99;46.43